Time;durP1;ratioP1;P1;durP2;ratioP2;P2;SDS_P1;SDS_P2;PMS_P1;PMS_P2;Temp;Humidity;BMP_temperature;BMP_pressure;BME280_temperature;BME280_humidity;BME280_pressure;Samples;Min_cycle;Max_cycle;Signal;HPM_P1;HPM_P2
2022/11/15 00:00:54;;;;;;;38.13;30.50;;;7.90;99.90;;;;;;5058815;28;20421;-67
2022/11/15 00:03:26;;;;;;;34.33;29.30;;;7.40;99.90;;;;;;5040859;28;20481;-65
2022/11/15 00:05:54;;;;;;;36.67;28.13;;;8.00;99.90;;;;;;5042968;28;20040;-64
2022/11/15 00:08:20;;;;;;;36.10;29.48;;;7.80;99.90;;;;;;5019256;28;20047;-65
2022/11/15 00:10:56;;;;;;;34.28;28.33;;;7.70;99.90;;;;;;5056297;28;20040;-65
2022/11/15 00:13:22;;;;;;;33.95;28.77;;;8.10;99.90;;;;;;5018502;28;20341;-65
2022/11/15 00:15:48;;;;;;;33.70;27.75;;;8.10;99.90;;;;;;5057046;28;20039;-67
2022/11/15 00:18:14;;;;;;;34.13;29.05;;;7.80;99.90;;;;;;5042481;28;20044;-66
2022/11/15 00:20:40;;;;;;;38.65;28.70;;;7.60;99.90;;;;;;5037366;28;20044;-67
2022/11/15 00:23:06;;;;;;;34.72;28.58;;;8.10;99.90;;;;;;5021018;28;20147;-66
2022/11/15 00:25:32;;;;;;;38.83;30.08;;;7.60;99.90;;;;;;5021260;28;20063;-66
2022/11/15 00:27:59;;;;;;;41.78;30.90;;;8.00;99.90;;;;;;5054402;28;20052;-66
2022/11/15 00:30:25;;;;;;;33.50;29.05;;;7.50;99.90;;;;;;5055072;28;20048;-65
2022/11/15 00:32:51;;;;;;;34.53;27.92;;;7.50;99.90;;;;;;5037502;28;20138;-65
2022/11/15 00:35:17;;;;;;;35.28;28.58;;;7.40;99.90;;;;;;5022232;28;20040;-65
2022/11/15 00:37:43;;;;;;;33.60;27.60;;;7.90;99.90;;;;;;5035822;28;20279;-64
2022/11/15 00:40:09;;;;;;;37.38;29.80;;;7.70;99.90;;;;;;5035994;28;20097;-65
2022/11/15 00:42:35;;;;;;;34.88;28.80;;;7.70;99.90;;;;;;5038379;28;20056;-65
2022/11/15 00:45:01;;;;;;;36.17;28.92;;;8.00;99.90;;;;;;5035616;28;20044;-66
2022/11/15 00:47:27;;;;;;;36.63;28.95;;;7.60;99.90;;;;;;5020156;28;20244;-66
2022/11/15 00:49:55;;;;;;;33.20;27.73;;;7.70;99.90;;;;;;5037003;28;20037;-65
2022/11/15 00:52:21;;;;;;;36.15;29.35;;;7.40;99.90;;;;;;5018668;28;20201;-65
2022/11/15 00:54:47;;;;;;;38.80;29.35;;;7.60;99.90;;;;;;5034319;28;20530;-65
2022/11/15 00:57:12;;;;;;;34.75;29.27;;;7.00;99.90;;;;;;5003721;28;20310;-65
2022/11/15 00:59:38;;;;;;;37.17;28.45;;;7.20;99.90;;;;;;5034918;28;20048;-64
2022/11/15 01:02:04;;;;;;;37.75;30.10;;;7.70;99.90;;;;;;5036321;28;20547;-65
2022/11/15 01:04:29;;;;;;;35.17;27.38;;;6.80;99.90;;;;;;5054440;28;20040;-64
2022/11/15 01:06:56;;;;;;;35.28;28.70;;;6.90;99.90;;;;;;5053196;28;20171;-65
2022/11/15 01:09:22;;;;;;;34.22;27.80;;;7.00;99.90;;;;;;5003455;28;20443;-66
2022/11/15 01:11:48;;;;;;;33.65;26.90;;;7.00;99.90;;;;;;5038290;28;20040;-66
2022/11/15 01:14:15;;;;;;;33.58;26.75;;;6.80;99.90;;;;;;5020822;28;20041;-66
2022/11/15 01:16:40;;;;;;;35.92;27.45;;;6.70;99.90;;;;;;5023665;28;20593;-66
2022/11/15 01:19:06;;;;;;;35.90;29.40;;;7.00;99.90;;;;;;5006311;28;20118;-67
2022/11/15 01:21:32;;;;;;;35.53;28.63;;;7.50;99.90;;;;;;5055681;28;20329;-66
2022/11/15 01:23:57;;;;;;;33.97;29.48;;;7.50;99.90;;;;;;5021780;28;20063;-67
2022/11/15 01:26:24;;;;;;;35.17;28.58;;;7.00;99.90;;;;;;5054636;28;20068;-65
2022/11/15 01:28:50;;;;;;;34.97;27.95;;;7.10;99.90;;;;;;5040108;28;20147;-67
2022/11/15 01:31:19;;;;;;;37.88;31.02;;;7.30;99.90;;;;;;5022439;28;20129;-66
2022/11/15 01:33:45;;;;;;;36.55;29.90;;;6.50;99.90;;;;;;5038540;28;20155;-67
2022/11/15 01:36:15;;;;;;;39.95;30.23;;;7.10;99.90;;;;;;5038134;28;20029;-64
2022/11/15 01:38:40;;;;;;;37.40;28.98;;;7.00;99.90;;;;;;5017895;28;20492;-64
2022/11/15 01:41:06;;;;;;;35.78;27.95;;;6.30;99.90;;;;;;5018083;28;20127;-65
2022/11/15 01:43:35;;;;;;;34.53;27.10;;;6.70;99.90;;;;;;5016954;28;20093;-64
2022/11/15 01:46:15;;;;;;;32.70;25.40;;;6.10;99.90;;;;;;5031905;28;20506;-64
2022/11/15 01:48:41;;;;;;;30.83;24.42;;;7.00;99.90;;;;;;5031817;28;20048;-66
2022/11/15 01:51:09;;;;;;;34.63;25.35;;;6.90;99.90;;;;;;5034397;28;20397;-65
2022/11/15 01:53:38;;;;;;;29.42;23.25;;;6.60;99.90;;;;;;5030808;28;20057;-65
2022/11/15 01:56:07;;;;;;;31.92;26.20;;;7.30;99.90;;;;;;5034752;28;20075;-65
2022/11/15 01:58:35;;;;;;;30.35;25.77;;;6.60;99.90;;;;;;5031507;28;20128;-66
2022/11/15 02:01:01;;;;;;;29.95;24.98;;;7.50;99.90;;;;;;5033222;28;20091;-65
2022/11/15 02:03:51;;;;;;;30.67;26.05;;;7.50;99.90;;;;;;5032061;28;20045;-65
2022/11/15 02:06:18;;;;;;;33.25;27.23;;;6.90;99.90;;;;;;5032640;28;20191;-66
2022/11/15 02:08:44;;;;;;;34.78;28.00;;;7.50;99.90;;;;;;5032118;28;20462;-66
2022/11/15 02:11:10;;;;;;;33.97;29.52;;;7.40;99.90;;;;;;5016612;28;20471;-65
2022/11/15 02:13:36;;;;;;;36.33;31.13;;;7.70;99.90;;;;;;5034832;28;20167;-67
2022/11/15 02:16:11;;;;;;;36.30;30.95;;;7.10;99.90;;;;;;5036483;28;20439;-65
2022/11/15 02:19:15;;;;;;;36.13;30.20;;;7.60;99.90;;;;;;5035628;28;20307;-63
2022/11/15 02:21:52;;;;;;;34.90;29.17;;;7.80;99.90;;;;;;4988536;28;20538;-65
2022/11/15 02:24:38;;;;;;;37.80;30.30;;;7.20;99.90;;;;;;5023194;28;20049;-65
2022/11/15 02:27:13;;;;;;;35.25;29.42;;;7.30;99.90;;;;;;5036872;28;20054;-65
2022/11/15 02:30:02;;;;;;;35.47;29.25;;;7.60;99.90;;;;;;5034238;28;20041;-65
2022/11/15 02:32:49;;;;;;;34.83;29.88;;;7.80;99.90;;;;;;5034804;28;20086;-66
2022/11/15 02:35:31;;;;;;;32.95;27.90;;;7.50;99.90;;;;;;5036010;28;20044;-65
2022/11/15 02:38:14;;;;;;;35.65;28.85;;;7.20;99.90;;;;;;5035841;28;20498;-65
2022/11/15 02:41:09;;;;;;;33.75;28.75;;;7.20;99.90;;;;;;5034467;28;20048;-64
2022/11/15 02:43:56;;;;;;;36.08;29.70;;;7.80;99.90;;;;;;5029727;28;20114;-65
2022/11/15 02:49:17;;;;;;;36.65;29.38;;;7.80;99.90;;;;;;5034506;28;20049;-66
2022/11/15 02:51:45;;;;;;;37.45;27.42;;;7.60;99.90;;;;;;5038254;28;20036;-65
2022/11/15 02:54:19;;;;;;;37.92;29.02;;;8.00;99.90;;;;;;5006264;28;20508;-65
2022/11/15 02:56:46;;;;;;;38.50;28.55;;;7.20;99.90;;;;;;5034836;28;20483;-65
2022/11/15 02:59:51;;;;;;;38.13;27.77;;;7.30;99.90;;;;;;5036173;28;20783;-66
2022/11/15 03:02:52;;;;;;;38.55;26.45;;;7.80;99.90;;;;;;5031687;28;20091;-65
2022/11/15 03:05:35;;;;;;;40.47;29.08;;;7.80;99.90;;;;;;5003200;28;20379;-64
2022/11/15 03:08:24;;;;;;;36.50;27.00;;;7.30;99.90;;;;;;5036426;28;20036;-66
2022/11/15 03:11:07;;;;;;;36.13;27.42;;;7.40;99.90;;;;;;5016709;28;20037;-66
2022/11/15 03:13:52;;;;;;;37.75;26.60;;;7.80;99.90;;;;;;5035209;28;20307;-66
2022/11/15 03:16:37;;;;;;;40.22;28.13;;;8.00;99.90;;;;;;5035013;28;20036;-65
2022/11/15 03:19:39;;;;;;;38.28;28.52;;;7.50;99.90;;;;;;5033443;28;20045;-64
2022/11/15 03:22:08;;;;;;;40.30;28.58;;;7.40;99.90;;;;;;5035221;28;20132;-66
2022/11/15 03:24:38;;;;;;;42.03;29.02;;;7.40;99.90;;;;;;5018171;28;20071;-65
2022/11/15 03:27:06;;;;;;;42.42;28.67;;;7.50;99.90;;;;;;5016698;28;20075;-66
2022/11/15 03:29:37;;;;;;;43.58;30.05;;;7.50;99.90;;;;;;5035059;28;20232;-66
2022/11/15 03:32:14;;;;;;;44.05;31.75;;;7.40;99.90;;;;;;5034238;28;20052;-65
2022/11/15 03:34:42;;;;;;;42.88;30.90;;;7.70;99.90;;;;;;5033078;28;20557;-66
2022/11/15 03:37:11;;;;;;;47.38;31.27;;;8.10;99.90;;;;;;5018646;28;20322;-65
2022/11/15 03:39:36;;;;;;;46.67;32.53;;;7.70;99.90;;;;;;5033753;28;20504;-65
2022/11/15 03:42:28;;;;;;;45.65;31.88;;;8.00;99.90;;;;;;5016899;28;20780;-66
2022/11/15 03:45:23;;;;;;;39.13;28.27;;;7.60;99.90;;;;;;5018358;28;20360;-65
2022/11/15 03:47:59;;;;;;;42.20;27.65;;;7.40;99.90;;;;;;5026993;28;20056;-66
2022/11/15 03:50:26;;;;;;;38.42;28.17;;;8.20;99.90;;;;;;5032398;28;20048;-66
2022/11/15 03:52:55;;;;;;;38.95;27.85;;;7.60;99.90;;;;;;5017961;28;20131;-64
2022/11/15 03:55:21;;;;;;;41.15;27.42;;;7.80;99.90;;;;;;5035916;28;20510;-66
2022/11/15 03:57:54;;;;;;;36.92;26.35;;;7.70;99.90;;;;;;5034895;28;20048;-66
2022/11/15 04:00:20;;;;;;;41.85;28.08;;;8.10;99.90;;;;;;5035598;28;20041;-65
2022/11/15 04:02:45;;;;;;;39.92;26.17;;;8.30;99.90;;;;;;5036342;28;20040;-66
2022/11/15 04:05:11;;;;;;;41.08;28.25;;;8.40;99.90;;;;;;5030074;28;20508;-65
2022/11/15 04:07:37;;;;;;;46.10;29.15;;;8.30;99.90;;;;;;5000202;28;20036;-66
2022/11/15 04:10:03;;;;;;;43.38;27.35;;;7.80;99.90;;;;;;5018179;28;20461;-65
2022/11/15 04:12:37;;;;;;;44.40;27.58;;;7.90;99.90;;;;;;5017049;28;20514;-64
2022/11/15 04:15:06;;;;;;;44.70;29.45;;;7.70;99.90;;;;;;5033038;28;20064;-65
2022/11/15 04:17:33;;;;;;;45.13;29.25;;;8.30;99.90;;;;;;5033818;28;20771;-66
2022/11/15 04:25:28;;;;;;;53.00;30.80;;;7.80;99.90;;;;;;5018410;28;20056;-65
2022/11/15 04:27:54;;;;;;;53.33;32.22;;;7.80;99.90;;;;;;5033784;28;20288;-66
2022/11/15 04:30:19;;;;;;;50.10;31.08;;;7.90;99.90;;;;;;5034135;28;20623;-65
2022/11/15 04:32:45;;;;;;;54.72;32.15;;;8.20;99.90;;;;;;5035646;28;20036;-66
2022/11/15 04:35:11;;;;;;;48.45;31.00;;;8.20;99.90;;;;;;5016204;28;20048;-65
2022/11/15 04:37:37;;;;;;;51.25;30.70;;;8.20;99.90;;;;;;5030745;28;20291;-66
2022/11/15 04:40:03;;;;;;;54.15;34.10;;;8.20;99.90;;;;;;5017640;28;20091;-66
2022/11/15 04:42:29;;;;;;;55.42;34.00;;;7.70;99.90;;;;;;5034009;28;20044;-66
2022/11/15 04:44:55;;;;;;;65.43;36.78;;;7.70;99.90;;;;;;4999844;28;20048;-65
2022/11/15 04:47:21;;;;;;;68.28;35.67;;;7.60;99.90;;;;;;5016292;28;20208;-66
2022/11/15 04:49:47;;;;;;;66.78;36.20;;;8.30;99.90;;;;;;5033492;28;20868;-65
2022/11/15 04:52:12;;;;;;;75.70;40.50;;;7.70;99.90;;;;;;5029025;28;20060;-65
2022/11/15 04:54:38;;;;;;;86.90;41.00;;;7.60;99.90;;;;;;5022279;28;20048;-65
2022/11/15 04:57:04;;;;;;;77.20;38.58;;;8.40;99.90;;;;;;5024065;28;20051;-64
2022/11/15 04:59:29;;;;;;;79.55;39.05;;;7.40;99.90;;;;;;5040609;28;20051;-65
2022/11/15 05:01:55;;;;;;;86.97;42.20;;;7.60;99.90;;;;;;5042879;28;20111;-64
2022/11/15 05:04:21;;;;;;;82.45;40.28;;;7.80;99.90;;;;;;5043108;28;20168;-64
2022/11/15 05:06:47;;;;;;;71.93;39.92;;;8.20;99.90;;;;;;5024780;28;20045;-64
2022/11/15 05:09:13;;;;;;;84.50;40.75;;;7.50;99.90;;;;;;5041183;28;20471;-65
2022/11/15 05:11:39;;;;;;;78.20;42.42;;;7.40;99.90;;;;;;5024150;28;20060;-63
2022/11/15 05:14:05;;;;;;;88.45;43.90;;;7.90;99.90;;;;;;5025066;28;20036;-64
2022/11/15 05:16:31;;;;;;;82.80;40.50;;;7.50;99.90;;;;;;5038854;28;20059;-65
2022/11/15 05:18:57;;;;;;;79.75;40.92;;;8.10;99.90;;;;;;5032708;28;20120;-65
2022/11/15 05:21:23;;;;;;;89.20;42.45;;;7.60;99.90;;;;;;5032556;28;20094;-66
2022/11/15 05:23:48;;;;;;;86.15;41.83;;;7.50;99.90;;;;;;5035463;28;20041;-64
2022/11/15 05:26:17;;;;;;;96.93;46.33;;;8.10;99.90;;;;;;5036166;28;20052;-65
2022/11/15 05:28:43;;;;;;;91.22;42.70;;;8.00;99.90;;;;;;5034732;28;20519;-66
2022/11/15 05:31:15;;;;;;;92.90;43.95;;;7.50;99.90;;;;;;4999074;28;20078;-65
2022/11/15 05:33:42;;;;;;;103.07;49.13;;;8.10;99.90;;;;;;5016247;28;20135;-64
2022/11/15 05:36:11;;;;;;;103.90;49.53;;;8.40;99.90;;;;;;5016176;28;20551;-65
2022/11/15 05:38:37;;;;;;;99.25;47.30;;;7.60;99.90;;;;;;5030582;28;20107;-65
2022/11/15 05:41:04;;;;;;;110.38;50.20;;;7.60;99.90;;;;;;5032475;28;20302;-66
2022/11/15 05:43:33;;;;;;;124.18;54.17;;;7.50;99.90;;;;;;5032056;28;20037;-65
2022/11/15 05:46:00;;;;;;;122.57;54.47;;;8.30;99.90;;;;;;5035232;28;20049;-64
2022/11/15 05:48:26;;;;;;;128.93;52.50;;;7.60;99.90;;;;;;5034912;28;20053;-65
2022/11/15 05:50:52;;;;;;;129.57;55.95;;;7.70;99.90;;;;;;5036190;28;20106;-65
2022/11/15 05:53:21;;;;;;;140.13;57.60;;;8.60;99.90;;;;;;5018017;28;20049;-66
2022/11/15 05:55:47;;;;;;;142.43;58.10;;;8.40;99.90;;;;;;5033852;28;20040;-66
2022/11/15 05:58:13;;;;;;;161.20;60.03;;;8.40;99.90;;;;;;5036764;28;20036;-66
2022/11/15 06:00:39;;;;;;;146.00;55.60;;;8.70;99.90;;;;;;5053309;28;20044;-66
2022/11/15 06:03:04;;;;;;;171.55;62.13;;;7.60;99.90;;;;;;5024928;28;20115;-65
2022/11/15 06:05:30;;;;;;;174.57;62.42;;;7.90;99.90;;;;;;5043554;28;20214;-65
2022/11/15 06:07:59;;;;;;;171.85;64.53;;;7.90;99.90;;;;;;5025461;28;20535;-65
2022/11/15 06:10:25;;;;;;;170.88;62.30;;;8.80;99.90;;;;;;5061399;28;20238;-63
2022/11/15 06:12:58;;;;;;;192.23;66.40;;;8.00;99.90;;;;;;5043567;28;20401;-65
2022/11/15 06:15:24;;;;;;;197.63;70.05;;;8.60;99.90;;;;;;5041408;28;20473;-66
2022/11/15 06:17:50;;;;;;;184.10;63.90;;;7.90;99.90;;;;;;5039877;28;20121;-66
2022/11/15 06:20:15;;;;;;;178.00;62.03;;;8.40;99.90;;;;;;5037418;28;20044;-65
2022/11/15 06:22:41;;;;;;;164.77;60.28;;;8.70;99.90;;;;;;5054115;28;20116;-66
2022/11/15 06:25:07;;;;;;;172.23;61.80;;;8.00;99.90;;;;;;5001396;28;20040;-66
2022/11/15 06:27:33;;;;;;;179.20;67.50;;;8.80;99.90;;;;;;5051254;28;20780;-65
2022/11/15 06:29:58;;;;;;;188.63;66.70;;;7.90;99.90;;;;;;5035925;28;20048;-67
2022/11/15 06:32:24;;;;;;;178.48;67.50;;;8.20;99.90;;;;;;5034424;28;20138;-65
2022/11/15 06:34:50;;;;;;;174.98;67.47;;;8.80;99.90;;;;;;5019372;28;20044;-65
2022/11/15 06:37:16;;;;;;;183.25;67.45;;;8.20;99.90;;;;;;5019305;28;20079;-64
2022/11/15 06:39:41;;;;;;;178.60;70.95;;;9.10;99.90;;;;;;5026811;28;20044;-64
2022/11/15 06:42:08;;;;;;;164.23;64.88;;;9.10;99.90;;;;;;5025031;28;20106;-65
2022/11/15 06:44:34;;;;;;;152.40;65.32;;;8.30;99.90;;;;;;5042596;28;20044;-65
2022/11/15 06:47:00;;;;;;;147.25;61.25;;;8.50;99.90;;;;;;5042088;28;20113;-65
2022/11/15 06:49:25;;;;;;;136.68;58.75;;;9.00;99.90;;;;;;5024602;28;20098;-66
2022/11/15 06:51:51;;;;;;;139.70;60.00;;;8.50;99.90;;;;;;5024001;28;20524;-66
2022/11/15 06:54:17;;;;;;;135.63;62.88;;;8.80;99.90;;;;;;5040716;28;20486;-66
2022/11/15 06:56:42;;;;;;;135.05;60.13;;;8.70;99.90;;;;;;5005677;28;20029;-66
2022/11/15 06:59:08;;;;;;;141.88;62.55;;;8.70;99.90;;;;;;5038850;28;20117;-66
2022/11/15 07:01:34;;;;;;;128.85;60.55;;;9.50;99.90;;;;;;5043246;28;20091;-66
2022/11/15 07:03:59;;;;;;;118.22;55.55;;;8.80;99.90;;;;;;5042502;28;20055;-66
2022/11/15 07:06:25;;;;;;;110.13;54.50;;;9.00;99.90;;;;;;5046264;28;20624;-66
2022/11/15 07:08:51;;;;;;;120.00;58.17;;;9.00;99.90;;;;;;5045095;28;20048;-66
2022/11/15 07:11:16;;;;;;;112.03;56.17;;;9.70;99.90;;;;;;5044223;28;20041;-65
2022/11/15 07:13:42;;;;;;;96.82;51.15;;;9.90;99.90;;;;;;5038363;28;20044;-66
2022/11/15 07:16:10;;;;;;;91.95;49.28;;;9.30;99.90;;;;;;5037412;28;20048;-67
2022/11/15 07:18:40;;;;;;;95.90;50.17;;;9.30;99.90;;;;;;5035893;28;20084;-66
2022/11/15 07:21:08;;;;;;;88.25;46.33;;;9.30;99.90;;;;;;5022471;28;20106;-65
2022/11/15 07:23:37;;;;;;;87.93;47.33;;;9.70;99.90;;;;;;5056178;28;20044;-67
2022/11/15 07:26:03;;;;;;;88.90;47.08;;;9.50;99.90;;;;;;5037399;28;20044;-65
2022/11/15 07:28:29;;;;;;;80.40;44.20;;;9.60;99.90;;;;;;5039042;28;20045;-66
2022/11/15 07:30:55;;;;;;;79.72;44.40;;;9.40;99.90;;;;;;5004936;28;20499;-65
2022/11/15 07:33:20;;;;;;;79.43;44.60;;;9.60;99.90;;;;;;5055528;28;20043;-65
2022/11/15 07:35:49;;;;;;;77.32;43.25;;;9.70;99.90;;;;;;5037939;28;20043;-65
2022/11/15 07:38:19;;;;;;;80.10;44.97;;;9.70;99.90;;;;;;5039240;28;20037;-65
2022/11/15 07:40:46;;;;;;;74.32;42.38;;;10.30;99.90;;;;;;5056064;28;20040;-66
2022/11/15 07:43:12;;;;;;;66.82;39.92;;;10.40;99.90;;;;;;5037101;28;20040;-66
2022/11/15 07:45:42;;;;;;;66.28;38.95;;;10.50;99.90;;;;;;5035984;28;20267;-66
2022/11/15 07:48:08;;;;;;;74.57;40.40;;;10.10;99.90;;;;;;5037464;28;20047;-65
2022/11/15 07:50:34;;;;;;;59.83;37.83;;;9.80;99.90;;;;;;5055982;28;20683;-66
2022/11/15 07:52:59;;;;;;;58.92;37.97;;;9.80;99.90;;;;;;5039363;28;20303;-66
2022/11/15 07:55:28;;;;;;;59.92;38.55;;;10.60;99.90;;;;;;5040725;28;20044;-66
2022/11/15 07:57:59;;;;;;;54.35;36.05;;;9.80;99.90;;;;;;5056933;28;20032;-66
2022/11/15 08:00:25;;;;;;;51.75;34.97;;;10.00;99.90;;;;;;5023526;28;20051;-65
2022/11/15 08:02:50;;;;;;;53.70;34.85;;;9.90;99.90;;;;;;5025739;28;20045;-67
2022/11/15 08:05:16;;;;;;;53.30;34.58;;;9.90;99.90;;;;;;5041822;28;20053;-66
2022/11/15 08:07:42;;;;;;;47.30;31.92;;;10.60;99.90;;;;;;5043798;28;20485;-66
2022/11/15 08:10:08;;;;;;;48.50;32.28;;;10.00;99.90;;;;;;5027220;28;20040;-67
2022/11/15 08:12:34;;;;;;;48.72;32.90;;;10.40;99.90;;;;;;5042214;28;20168;-66
2022/11/15 08:14:59;;;;;;;46.78;33.80;;;10.20;99.90;;;;;;5024010;28;20468;-66
2022/11/15 08:17:26;;;;;;;48.22;33.53;;;10.20;99.90;;;;;;5040352;28;20113;-66
2022/11/15 08:19:51;;;;;;;46.17;31.95;;;10.90;99.90;;;;;;5041345;28;20076;-65
2022/11/15 08:22:17;;;;;;;46.33;29.95;;;10.90;99.90;;;;;;5057601;28;20135;-66
2022/11/15 08:24:44;;;;;;;47.75;30.65;;;10.30;99.90;;;;;;5024907;28;20048;-66
2022/11/15 08:27:14;;;;;;;45.58;30.45;;;10.30;99.90;;;;;;5039439;28;20089;-66
2022/11/15 08:29:44;;;;;;;41.70;30.85;;;10.90;99.90;;;;;;5040665;28;20391;-65
2022/11/15 08:32:11;;;;;;;42.72;30.88;;;10.70;99.90;;;;;;5024757;28;20036;-65
2022/11/15 08:34:37;;;;;;;43.20;29.13;;;10.80;99.90;;;;;;5022086;28;20075;-65
2022/11/15 08:37:04;;;;;;;41.33;28.90;;;10.80;99.90;;;;;;5039034;28;20470;-66
2022/11/15 08:39:29;;;;;;;41.67;29.33;;;10.50;99.90;;;;;;5039204;28;20495;-65
2022/11/15 08:41:55;;;;;;;36.20;28.02;;;11.10;99.90;;;;;;5039924;28;20090;-67
2022/11/15 08:44:21;;;;;;;38.33;27.80;;;10.50;99.90;;;;;;5041388;28;20036;-66
2022/11/15 08:46:47;;;;;;;38.03;28.02;;;11.20;99.90;;;;;;5059857;28;20056;-67
2022/11/15 08:49:12;;;;;;;36.20;26.95;;;11.00;99.90;;;;;;5038301;28;21631;-65
2022/11/15 08:51:38;;;;;;;39.80;28.77;;;11.20;99.90;;;;;;5024012;28;20059;-66
2022/11/15 08:54:04;;;;;;;34.67;26.52;;;10.60;99.90;;;;;;5041635;28;20066;-66
2022/11/15 08:56:30;;;;;;;37.00;27.95;;;11.00;99.90;;;;;;5061908;28;20470;-67
2022/11/15 08:58:55;;;;;;;34.13;26.42;;;10.90;99.90;;;;;;5060235;28;20394;-65
2022/11/15 09:01:21;;;;;;;32.22;26.33;;;11.50;99.90;;;;;;5063587;28;20028;-65
2022/11/15 09:03:47;;;;;;;34.47;26.08;;;11.10;99.90;;;;;;5064460;28;20044;-64
2022/11/15 09:06:14;;;;;;;30.70;24.70;;;11.60;99.90;;;;;;5043471;28;20048;-64
2022/11/15 09:08:40;;;;;;;34.55;25.67;;;11.40;99.90;;;;;;5062983;28;20040;-64
2022/11/15 09:11:08;;;;;;;33.90;24.95;;;11.00;99.90;;;;;;5046710;28;20398;-66
2022/11/15 09:13:37;;;;;;;29.77;23.88;;;11.30;99.90;;;;;;5044944;28;20052;-66
2022/11/15 09:16:04;;;;;;;32.80;25.48;;;11.60;99.90;;;;;;5046000;28;20319;-64
2022/11/15 09:18:30;;;;;;;31.17;23.73;;;11.60;99.90;;;;;;5044954;28;20051;-64
2022/11/15 09:20:59;;;;;;;29.33;22.85;;;11.20;99.90;;;;;;5026753;28;20036;-65
2022/11/15 09:23:26;;;;;;;28.95;22.92;;;11.30;99.90;;;;;;5044333;28;20044;-66
2022/11/15 09:25:57;;;;;;;28.35;22.88;;;11.90;99.90;;;;;;5024410;28;20041;-66
2022/11/15 09:28:23;;;;;;;28.23;22.35;;;11.70;99.90;;;;;;5038707;28;20393;-66
2022/11/15 09:30:48;;;;;;;25.08;21.25;;;12.30;99.90;;;;;;5019535;28;20048;-65
2022/11/15 09:33:14;;;;;;;26.08;22.05;;;11.90;99.90;;;;;;5004115;28;20044;-66
2022/11/15 09:35:40;;;;;;;30.13;22.80;;;12.00;99.90;;;;;;5038435;28;20482;-65
2022/11/15 09:38:06;;;;;;;26.10;21.58;;;12.50;99.90;;;;;;5017575;28;20075;-67
2022/11/15 09:40:35;;;;;;;25.48;21.35;;;12.20;99.90;;;;;;5021283;28;20511;-66
2022/11/15 09:43:03;;;;;;;24.20;21.13;;;12.10;99.90;;;;;;5038494;28;20483;-66
2022/11/15 09:45:51;;;;;;;25.60;20.92;;;12.40;99.90;;;;;;5035821;28;20045;-66
2022/11/15 09:48:41;;;;;;;26.30;21.35;;;12.30;99.90;;;;;;5037836;28;20059;-65
2022/11/15 09:51:13;;;;;;;26.63;19.90;;;12.00;99.90;;;;;;5037718;28;20055;-66
2022/11/15 09:53:54;;;;;;;27.13;22.15;;;11.90;99.90;;;;;;5033918;28;20056;-66
2022/11/15 09:56:22;;;;;;;27.23;22.42;;;12.30;99.90;;;;;;5037626;28;20055;-66
2022/11/15 09:59:13;;;;;;;25.15;21.50;;;12.10;99.90;;;;;;5056019;28;20517;-72
2022/11/15 10:02:04;;;;;;;26.58;21.92;;;12.40;99.90;;;;;;5016649;28;20088;-64
2022/11/15 10:04:30;;;;;;;25.70;21.27;;;12.40;99.90;;;;;;5038511;28;20053;-67
2022/11/15 10:07:14;;;;;;;27.10;22.23;;;11.80;99.90;;;;;;5020662;28;20242;-66
2022/11/15 10:09:55;;;;;;;25.02;22.15;;;12.20;99.90;;;;;;5033215;28;20036;-66
2022/11/15 10:12:20;;;;;;;25.83;23.05;;;12.20;99.90;;;;;;5037708;28;20123;-65
2022/11/15 10:14:48;;;;;;;27.73;22.95;;;11.80;99.90;;;;;;5037711;28;20048;-66
2022/11/15 10:17:35;;;;;;;26.55;23.10;;;12.40;99.90;;;;;;5035381;28;20040;-66
2022/11/15 10:20:21;;;;;;;27.08;23.33;;;12.30;99.90;;;;;;5037659;28;20044;-65
2022/11/15 10:22:56;;;;;;;29.48;23.77;;;12.10;99.90;;;;;;5055620;28;20032;-67
2022/11/15 10:25:28;;;;;;;27.67;23.25;;;12.50;99.90;;;;;;5033540;28;20346;-66
2022/11/15 10:28:14;;;;;;;32.55;25.90;;;12.40;99.90;;;;;;5041316;28;21499;-66
2022/11/15 10:30:46;;;;;;;28.27;25.20;;;12.30;99.90;;;;;;5037572;28;20625;-65
2022/11/15 10:33:29;;;;;;;28.38;25.15;;;12.30;99.90;;;;;;5037375;28;20048;-65
2022/11/15 10:36:32;;;;;;;28.52;25.42;;;12.50;99.90;;;;;;5041594;28;20044;-65
2022/11/15 10:38:58;;;;;;;29.50;25.65;;;12.40;99.90;;;;;;5024279;28;20055;-65
2022/11/15 10:41:27;;;;;;;31.48;26.98;;;12.50;99.90;;;;;;5037189;28;20041;-65
2022/11/15 10:44:31;;;;;;;33.70;28.67;;;12.40;99.90;;;;;;5041525;28;20062;-65
2022/11/15 10:46:56;;;;;;;32.30;27.83;;;12.30;99.90;;;;;;5039801;28;20480;-65
2022/11/15 10:49:30;;;;;;;29.88;26.63;;;12.10;99.90;;;;;;5039071;28;20478;-65
2022/11/15 10:52:00;;;;;;;33.92;29.25;;;12.50;99.90;;;;;;5024550;28;20051;-68
2022/11/15 10:54:35;;;;;;;34.20;28.75;;;12.00;99.90;;;;;;5023548;28;20055;-66
2022/11/15 10:57:08;;;;;;;36.70;30.30;;;12.10;99.90;;;;;;5020304;28;20391;-67
2022/11/15 10:59:37;;;;;;;37.17;30.83;;;12.30;99.90;;;;;;5040661;28;20123;-66
2022/11/15 11:02:22;;;;;;;39.53;30.38;;;11.80;99.90;;;;;;5041442;28;20034;-65
2022/11/15 11:04:51;;;;;;;38.20;31.98;;;12.50;99.90;;;;;;5049535;28;20051;-67
2022/11/15 11:07:23;;;;;;;37.90;30.58;;;12.40;99.90;;;;;;5031279;28;20149;-67
2022/11/15 11:10:29;;;;;;;36.42;31.48;;;11.90;99.90;;;;;;5025669;28;20079;-67
2022/11/15 11:12:54;;;;;;;33.63;29.13;;;11.80;99.90;;;;;;4994347;28;20332;-67
2022/11/15 11:15:24;;;;;;;32.42;28.80;;;11.90;99.90;;;;;;5024461;28;20040;-66
2022/11/15 11:18:23;;;;;;;33.03;29.50;;;12.50;99.90;;;;;;5022342;28;20118;-66
2022/11/15 11:20:58;;;;;;;32.08;28.65;;;12.00;99.90;;;;;;5024387;28;20079;-66
2022/11/15 11:23:49;;;;;;;33.08;29.42;;;12.40;99.90;;;;;;5026148;28;20045;-65
2022/11/15 11:26:38;;;;;;;35.00;31.42;;;12.30;99.90;;;;;;5022222;28;20413;-67
2022/11/15 11:29:36;;;;;;;33.30;29.88;;;11.80;99.90;;;;;;5046848;28;20040;-65
2022/11/15 11:32:17;;;;;;;33.55;28.17;;;12.30;99.90;;;;;;5035323;28;20112;-65
2022/11/15 11:35:11;;;;;;;31.85;27.70;;;11.80;99.90;;;;;;5049475;28;20055;-65
2022/11/15 11:37:46;;;;;;;32.85;28.63;;;12.30;99.90;;;;;;5033555;28;20124;-65
2022/11/15 11:40:32;;;;;;;32.47;28.92;;;12.20;99.90;;;;;;5023291;28;20375;-66
2022/11/15 11:43:08;;;;;;;28.95;25.95;;;12.10;99.90;;;;;;5037946;28;20040;-66
2022/11/15 11:45:34;;;;;;;27.77;24.95;;;11.80;99.90;;;;;;5021163;28;20052;-65
2022/11/15 11:48:39;;;;;;;27.95;25.08;;;11.90;99.90;;;;;;5039494;28;20506;-66
2022/11/15 11:51:34;;;;;;;27.00;24.17;;;12.40;99.90;;;;;;5036048;28;20070;-67
2022/11/15 11:54:02;;;;;;;25.02;22.52;;;12.30;99.90;;;;;;5039121;28;20045;-67
2022/11/15 11:56:41;;;;;;;24.42;21.38;;;12.50;99.90;;;;;;5022384;28;20044;-66
2022/11/15 11:59:25;;;;;;;24.15;21.67;;;12.40;99.90;;;;;;5036435;28;20055;-65
2022/11/15 12:01:51;;;;;;;22.65;20.23;;;12.50;99.90;;;;;;5039661;28;20045;-65
2022/11/15 12:04:26;;;;;;;24.65;22.23;;;12.60;99.90;;;;;;5038746;28;20181;-66
2022/11/15 12:07:09;;;;;;;20.88;18.95;;;12.70;99.90;;;;;;5039418;28;20084;-67
2022/11/15 12:10:07;;;;;;;24.75;22.30;;;11.80;99.90;;;;;;5047851;28;20048;-64
2022/11/15 12:12:32;;;;;;;24.13;21.73;;;12.50;99.90;;;;;;5012442;28;20048;-66
2022/11/15 12:15:12;;;;;;;24.27;21.98;;;12.60;99.90;;;;;;5038589;28;20066;-66
2022/11/15 12:17:40;;;;;;;23.77;21.45;;;11.80;99.90;;;;;;5056121;28;20115;-65
2022/11/15 12:20:23;;;;;;;21.80;19.83;;;12.00;99.90;;;;;;5021088;28;20044;-66
2022/11/15 12:23:11;;;;;;;21.52;19.52;;;12.70;99.90;;;;;;5037473;28;20040;-66
2022/11/15 12:25:55;;;;;;;20.17;18.38;;;12.60;99.90;;;;;;5035026;28;20158;-66
2022/11/15 12:28:42;;;;;;;20.42;18.52;;;12.10;99.90;;;;;;5038219;28;20047;-66
2022/11/15 12:31:29;;;;;;;20.42;18.48;;;12.50;99.90;;;;;;5023113;28;20440;-66
2022/11/15 12:33:57;;;;;;;18.60;17.05;;;13.00;99.90;;;;;;5043334;28;20125;-68
2022/11/15 12:36:23;;;;;;;18.00;16.35;;;12.70;99.90;;;;;;5041285;28;20083;-67
2022/11/15 12:39:02;;;;;;;19.20;17.40;;;12.90;99.90;;;;;;5060330;28;20123;-66
2022/11/15 12:41:36;;;;;;;18.90;17.20;;;12.40;99.90;;;;;;5026128;28;20383;-67
2022/11/15 12:44:04;;;;;;;18.27;16.63;;;12.80;99.90;;;;;;5019461;28;20048;-66
2022/11/15 12:46:29;;;;;;;18.30;16.55;;;12.30;99.90;;;;;;5035256;28;20064;-66
2022/11/15 12:48:58;;;;;;;17.88;16.17;;;12.40;99.90;;;;;;5019030;28;20491;-66
2022/11/15 12:51:42;;;;;;;17.58;15.77;;;13.00;99.90;;;;;;5018100;28;20171;-67
2022/11/15 12:54:22;;;;;;;15.27;13.57;;;13.10;99.90;;;;;;5037114;28;20052;-66
2022/11/15 12:57:08;;;;;;;13.63;12.43;;;13.80;99.90;;;;;;5055538;28;20044;-67
2022/11/15 12:59:49;;;;;;;13.80;12.52;;;14.50;99.90;;;;;;5035955;28;20040;-66